Time;durP1;ratioP1;P1;durP2;ratioP2;P2;SDS_P1;SDS_P2;PMS_P1;PMS_P2;Temp;Humidity;BMP_temperature;BMP_pressure;BME280_temperature;BME280_humidity;BME280_pressure;Samples;Min_cycle;Max_cycle;Signal;HPM_P1;HPM_P2
2021/12/26 00:01:05;;;;;;;22.15;14.18;;;1.40;84.80;;;0.03;80.51;95371.03;4048051;34;20004;-85
2021/12/26 00:03:32;;;;;;;21.52;14.23;;;1.40;84.70;;;0.02;80.20;95369.41;3977588;34;20395;-85
2021/12/26 00:06:06;;;;;;;24.65;15.98;;;1.40;84.90;;;0.03;80.50;95381.81;3996847;34;20362;-85
2021/12/26 00:08:36;;;;;;;21.23;13.55;;;1.40;84.90;;;0.03;80.78;95377.22;4000909;34;20039;-84
2021/12/26 00:11:03;;;;;;;23.30;14.85;;;1.40;85.60;;;0.04;80.56;95384.25;4000244;34;19997;-85
2021/12/26 00:13:30;;;;;;;20.58;13.10;;;1.40;84.80;;;0.03;80.44;95377.22;4020717;34;19993;-85
2021/12/26 00:15:58;;;;;;;21.02;13.70;;;1.40;84.80;;;0.02;80.61;95385.53;4000476;34;20009;-85
2021/12/26 00:18:25;;;;;;;22.10;14.27;;;1.40;84.80;;;0.04;80.38;95389.63;4020663;34;20343;-85
2021/12/26 00:20:52;;;;;;;24.05;14.55;;;1.50;84.80;;;0.04;80.60;95389.63;4021769;34;20281;-85
2021/12/26 00:23:20;;;;;;;21.13;13.95;;;1.40;85.00;;;0.04;80.43;95396.91;3999521;34;20195;-85
2021/12/26 00:25:47;;;;;;;19.65;13.45;;;1.40;84.80;;;0.04;80.41;95389.63;4020113;34;20297;-85
2021/12/26 00:28:14;;;;;;;24.55;14.63;;;1.40;84.80;;;0.05;80.50;95396.66;4047052;34;20308;-85
2021/12/26 00:30:41;;;;;;;21.80;14.35;;;1.50;84.90;;;0.04;80.77;95395.03;4090786;34;20012;-85
2021/12/26 00:33:07;;;;;;;21.30;14.40;;;1.40;84.70;;;0.04;80.62;95383.44;4023979;34;20274;-84
2021/12/26 00:35:33;;;;;;;22.27;13.77;;;1.40;84.80;;;0.05;80.38;95390.47;4060998;34;20005;-85
2021/12/26 00:38:00;;;;;;;22.33;15.23;;;1.40;84.70;;;0.06;80.37;95389.44;3999880;34;20305;-85
2021/12/26 00:40:26;;;;;;;22.13;13.65;;;1.50;84.80;;;0.05;80.45;95393.16;4001533;34;20009;-85
2021/12/26 00:42:53;;;;;;;22.35;14.52;;;1.50;84.70;;;0.05;80.55;95398.56;4024237;34;20700;-85
2021/12/26 00:45:20;;;;;;;21.50;13.90;;;1.40;84.80;;;0.05;80.76;95390.47;3960656;34;20588;-85
2021/12/26 00:47:47;;;;;;;19.73;13.80;;;1.50;84.90;;;0.05;80.22;95398.56;4023549;34;20080;-85
2021/12/26 00:50:17;;;;;;;22.55;14.30;;;1.40;84.80;;;0.06;80.74;95392.94;4028562;34;20333;-85
2021/12/26 00:52:44;;;;;;;24.40;14.32;;;1.50;84.80;;;0.07;80.29;95393.75;4024670;34;19985;-86
2021/12/26 00:55:12;;;;;;;24.30;15.43;;;1.40;84.70;;;0.05;80.55;95385.91;4067517;34;20008;-85
2021/12/26 00:57:39;;;;;;;21.08;13.65;;;1.50;84.80;;;0.07;80.36;95393.75;3996759;34;20286;-85
2021/12/26 01:00:12;;;;;;;22.15;13.93;;;1.40;84.70;;;0.07;80.76;95396.44;4039045;34;20322;-85
2021/12/26 01:02:38;;;;;;;20.13;13.50;;;1.40;84.80;;;0.06;80.49;95398.31;4035821;34;20824;-85
2021/12/26 01:05:06;;;;;;;23.63;14.82;;;1.50;84.80;;;0.07;80.26;95396.44;4017350;34;20291;-85
2021/12/26 01:10:06;;;;;;;20.42;13.55;;;1.50;84.90;;;0.07;80.38;95407.19;4020434;34;20051;-85
2021/12/26 01:12:33;;;;;;;20.63;14.23;;;1.50;84.80;;;0.07;80.51;95399.97;4041523;34;20349;-85
2021/12/26 01:15:05;;;;;;;23.17;14.27;;;1.50;84.70;;;0.06;80.73;95392.13;4040940;34;20363;-85
2021/12/26 01:17:39;;;;;;;22.33;13.55;;;1.50;84.80;;;0.05;80.26;95396.66;3983485;34;20271;-86
2021/12/26 01:20:39;;;;;;;22.25;14.75;;;1.50;84.70;;;0.07;80.96;95391.06;3980827;34;20296;-85
2021/12/26 01:23:06;;;;;;;25.17;15.38;;;1.50;84.80;;;0.08;80.50;95395.38;4037931;34;20719;-85
2021/12/26 01:25:33;;;;;;;22.67;14.85;;;1.50;84.90;;;0.07;80.23;95385.66;4002719;34;20385;-85
2021/12/26 01:27:59;;;;;;;18.80;13.02;;;1.50;84.80;;;0.08;80.64;95381.94;3997432;34;20032;-85
2021/12/26 01:30:27;;;;;;;22.30;14.82;;;1.50;84.70;;;0.08;80.57;95380.09;3999334;34;20610;-86
2021/12/26 01:32:55;;;;;;;22.52;15.15;;;1.50;84.80;;;0.09;80.42;95375.50;4039376;34;20280;-85
2021/12/26 01:35:34;;;;;;;21.40;14.13;;;1.50;84.80;;;0.07;80.53;95372.22;4004618;34;20001;-85
2021/12/26 01:38:13;;;;;;;21.27;13.57;;;1.50;84.70;;;0.08;80.77;95369.31;4001502;34;20339;-85
2021/12/26 01:41:11;;;;;;;22.08;14.93;;;1.50;84.80;;;0.09;80.18;95370.13;4015575;34;20017;-85
2021/12/26 01:44:03;;;;;;;24.15;14.75;;;1.50;84.80;;;0.10;80.53;95363.69;4025934;34;20085;-85
2021/12/26 01:46:40;;;;;;;23.98;15.32;;;1.50;84.70;;;0.09;80.36;95370.97;4002163;34;20381;-85
2021/12/26 01:49:28;;;;;;;23.75;16.35;;;1.50;84.70;;;0.09;80.69;95370.13;4043848;34;20200;-85
2021/12/26 01:51:58;;;;;;;23.53;15.67;;;1.50;84.90;;;0.11;80.52;95373.41;3988854;34;20438;-86
2021/12/26 01:54:32;;;;;;;24.08;16.13;;;1.50;84.80;;;0.10;80.68;95366.38;3977064;34;20299;-85
2021/12/26 01:57:00;;;;;;;25.77;15.82;;;1.50;85.70;;;0.10;80.47;95366.38;3998646;34;20362;-85
2021/12/26 01:59:27;;;;;;;27.35;16.88;;;1.50;84.80;;;0.11;80.58;95362.66;3976260;34;20538;-85
2021/12/26 02:02:04;;;;;;;22.88;15.30;;;1.50;84.70;;;0.11;80.39;95357.28;4020498;34;20008;-86
2021/12/26 02:04:31;;;;;;;25.30;15.93;;;1.50;84.70;;;0.10;80.27;95369.06;3976561;34;20032;-85
2021/12/26 02:07:00;;;;;;;25.67;16.52;;;1.50;84.70;;;0.11;80.84;95365.34;3977050;34;20087;-85
2021/12/26 02:09:27;;;;;;;26.83;16.85;;;1.50;84.80;;;0.11;80.52;95366.19;4023642;34;20523;-86
2021/12/26 02:11:56;;;;;;;27.77;17.92;;;1.50;84.80;;;0.11;80.48;95363.50;3980899;34;20295;-85
2021/12/26 02:14:23;;;;;;;26.88;17.23;;;1.50;84.70;;;0.12;80.09;95364.28;4004715;34;20439;-85
2021/12/26 02:17:09;;;;;;;27.38;17.65;;;1.50;84.60;;;0.11;80.24;95362.66;4008922;34;20012;-85
2021/12/26 02:19:39;;;;;;;30.02;16.83;;;1.50;84.70;;;0.11;80.52;95366.19;3981991;34;20401;-85
2021/12/26 02:22:11;;;;;;;27.30;16.90;;;1.50;84.70;;;0.11;80.44;95368.03;3984149;34;20000;-85
2021/12/26 02:27:32;;;;;;;28.70;17.75;;;1.50;84.70;;;0.10;80.50;95372.59;3999391;34;20665;-85
2021/12/26 02:30:10;;;;;;;28.20;18.30;;;1.50;84.70;;;0.12;80.25;95375.06;4008308;34;20000;-85
2021/12/26 02:32:36;;;;;;;29.88;18.50;;;1.50;84.80;;;0.13;80.40;95376.72;3998916;34;20295;-85
2021/12/26 02:35:04;;;;;;;30.02;18.00;;;1.50;85.60;;;0.13;80.59;95379.41;3978301;34;20331;-85
2021/12/26 02:37:30;;;;;;;29.17;19.42;;;1.50;84.70;;;0.12;80.63;95375.06;3975431;34;20316;-85
2021/12/26 02:39:57;;;;;;;32.25;20.00;;;1.50;84.70;;;0.12;80.53;95375.06;3996143;34;20387;-85
2021/12/26 02:42:24;;;;;;;28.35;18.05;;;1.50;84.70;;;0.12;80.40;95373.22;3998707;34;20004;-84
2021/12/26 02:44:53;;;;;;;30.08;19.38;;;1.50;84.70;;;0.12;80.55;95375.91;4066201;34;20298;-85
2021/12/26 02:47:41;;;;;;;31.55;20.42;;;1.50;84.70;;;0.13;80.40;95371.31;4065264;34;20019;-85
2021/12/26 02:50:21;;;;;;;31.08;18.95;;;1.50;84.70;;;0.13;80.74;95371.31;4022160;34;20295;-85
2021/12/26 02:52:48;;;;;;;32.75;20.60;;;1.50;84.80;;;0.14;80.59;95362.22;4039116;34;20012;-85
2021/12/26 02:55:18;;;;;;;28.30;18.42;;;1.50;84.70;;;0.14;80.03;95370.28;3994616;34;20015;-84
2021/12/26 02:57:56;;;;;;;29.30;18.75;;;1.50;84.60;;;0.15;80.69;95374.63;4020711;34;20286;-85
2021/12/26 03:00:26;;;;;;;33.50;21.13;;;1.50;84.80;;;0.13;80.57;95374.81;4040795;34;20700;-86
2021/12/26 03:02:56;;;;;;;32.35;19.80;;;1.50;84.80;;;0.15;80.31;95380.00;3998617;34;20320;-84
2021/12/26 03:05:26;;;;;;;31.60;20.63;;;1.50;84.50;;;0.14;80.06;95373.78;4062375;34;20004;-86
2021/12/26 03:07:52;;;;;;;30.27;19.60;;;1.50;84.50;;;0.14;80.48;95367.59;3998193;34;20305;-84
2021/12/26 03:10:24;;;;;;;35.33;21.23;;;1.50;84.60;;;0.14;80.43;95378.34;3998228;34;20324;-85
2021/12/26 03:12:57;;;;;;;34.08;20.70;;;1.50;84.80;;;0.14;80.61;95383.75;4042486;34;20310;-85
2021/12/26 03:15:25;;;;;;;35.40;20.48;;;1.50;84.60;;;0.13;80.18;95377.53;4038414;34;20297;-85
2021/12/26 03:17:53;;;;;;;35.13;21.40;;;1.50;84.70;;;0.15;80.53;95390.78;4010913;34;20299;-84
2021/12/26 03:20:23;;;;;;;35.25;20.95;;;1.50;84.60;;;0.13;80.57;95385.59;3989732;34;20017;-86
2021/12/26 03:22:49;;;;;;;33.00;21.05;;;1.60;84.80;;;0.15;80.48;95396.16;3988171;34;20092;-84
2021/12/26 03:25:20;;;;;;;35.03;21.53;;;1.50;84.70;;;0.14;80.71;95400.69;3968484;34;20791;-84
2021/12/26 03:27:48;;;;;;;33.80;20.70;;;1.50;84.60;;;0.15;80.53;95396.16;3975296;34;20300;-85
2021/12/26 03:30:18;;;;;;;34.63;21.52;;;1.60;84.70;;;0.14;80.37;95399.88;3974453;34;20315;-85
2021/12/26 03:32:44;;;;;;;36.05;21.08;;;1.60;84.60;;;0.14;80.66;95389.13;3952688;34;20012;-85
2021/12/26 03:35:12;;;;;;;37.30;23.13;;;1.60;84.80;;;0.14;80.70;95394.50;3975900;34;20329;-85
2021/12/26 03:37:41;;;;;;;32.72;21.25;;;1.50;84.90;;;0.15;80.76;95396.97;3976721;34;20203;-85
2021/12/26 03:40:27;;;;;;;34.08;21.23;;;1.60;85.10;;;0.15;80.66;95398.84;4018118;34;19996;-85
2021/12/26 03:42:54;;;;;;;32.80;20.55;;;1.60;85.00;;;0.16;80.53;95408.56;4025818;34;20298;-85
2021/12/26 03:45:20;;;;;;;32.42;20.85;;;1.50;84.80;;;0.16;80.52;95400.50;4070730;34;20038;-84
2021/12/26 03:47:49;;;;;;;32.95;20.35;;;1.60;84.50;;;0.17;80.43;95406.69;4069586;34;20288;-85
2021/12/26 03:50:20;;;;;;;32.83;20.05;;;1.60;84.70;;;0.16;80.63;95413.94;4005438;34;20004;-85
2021/12/26 03:52:49;;;;;;;32.97;21.02;;;1.50;84.60;;;0.16;80.43;95405.88;4004292;34;20008;-84
2021/12/26 03:55:20;;;;;;;31.67;19.45;;;1.60;84.70;;;0.18;80.48;95406.47;4025384;34;20012;-85
2021/12/26 03:57:46;;;;;;;31.02;19.10;;;1.60;84.80;;;0.18;80.77;95405.63;4045707;34;20043;-85
2021/12/26 04:00:16;;;;;;;31.80;18.92;;;1.60;84.80;;;0.17;80.40;95399.44;4068763;34;20291;-85
2021/12/26 04:02:43;;;;;;;34.55;20.27;;;1.60;84.70;;;0.17;80.59;95402.13;4046783;34;20016;-85
2021/12/26 04:05:11;;;;;;;29.35;19.35;;;1.60;84.70;;;0.18;80.41;95403.78;4046597;34;20304;-85
2021/12/26 04:07:38;;;;;;;30.58;19.13;;;1.60;84.50;;;0.16;80.54;95408.56;4003659;34;20251;-85
2021/12/26 04:10:05;;;;;;;31.38;19.67;;;1.60;84.50;;;0.17;80.47;95410.22;4069041;34;20242;-85
2021/12/26 04:12:36;;;;;;;31.65;18.17;;;1.60;84.80;;;0.17;80.60;95407.53;4003990;34;20302;-85
2021/12/26 04:15:10;;;;;;;27.20;16.98;;;1.60;84.60;;;0.17;80.65;95407.53;4026242;34;20004;-85
2021/12/26 04:17:37;;;;;;;31.80;18.92;;;1.60;84.80;;;0.18;80.54;95411.84;4044809;34;20343;-84
2021/12/26 04:20:07;;;;;;;29.88;18.33;;;1.60;84.70;;;0.18;80.33;95402.94;4067163;34;20324;-84
2021/12/26 04:22:33;;;;;;;28.75;17.48;;;1.60;84.60;;;0.18;80.58;95411.84;4025926;34;20382;-85
2021/12/26 04:25:01;;;;;;;31.13;18.65;;;1.60;84.60;;;0.19;80.15;95407.28;4025001;34;20395;-84
2021/12/26 04:27:27;;;;;;;28.90;18.67;;;1.60;84.50;;;0.19;80.74;95415.34;4003426;34;20016;-85
2021/12/26 04:29:54;;;;;;;28.33;17.80;;;1.60;84.70;;;0.18;80.78;95417.25;4068697;34;20369;-85
2021/12/26 04:32:22;;;;;;;26.83;17.20;;;1.60;84.70;;;0.20;80.69;95420.50;4004539;34;20304;-85
2021/12/26 04:34:48;;;;;;;26.92;17.48;;;1.60;84.80;;;0.20;80.54;95414.31;4022688;34;20022;-86
2021/12/26 04:37:16;;;;;;;29.33;17.95;;;1.60;84.70;;;0.21;80.99;95422.16;4023127;34;20384;-84
2021/12/26 04:39:42;;;;;;;25.20;16.13;;;1.60;85.00;;;0.20;80.42;95420.50;4022128;34;19984;-85
2021/12/26 04:42:09;;;;;;;24.52;15.57;;;1.60;84.70;;;0.20;80.42;95425.88;4000979;34;20012;-84
2021/12/26 04:44:35;;;;;;;25.63;15.65;;;1.60;84.70;;;0.18;80.38;95419.94;4061372;34;20005;-85
2021/12/26 04:47:31;;;;;;;25.63;16.13;;;1.60;84.50;;;0.22;80.81;95429.19;4022785;34;20012;-85
2021/12/26 04:49:58;;;;;;;26.95;16.67;;;1.60;84.80;;;0.20;80.60;95428.56;3997057;34;20336;-85
2021/12/26 04:52:36;;;;;;;26.10;15.48;;;1.60;85.00;;;0.22;80.45;95439.94;4002881;34;20328;-85
2021/12/26 04:55:05;;;;;;;26.30;16.05;;;1.60;84.70;;;0.22;80.41;95441.84;4017224;34;20005;-85
2021/12/26 04:57:32;;;;;;;26.05;16.38;;;1.60;84.70;;;0.22;80.51;95434.56;3997671;34;20076;-85
2021/12/26 04:59:59;;;;;;;25.58;15.68;;;1.60;84.90;;;0.22;80.50;95439.94;4023522;34;20349;-85
2021/12/26 05:02:28;;;;;;;24.23;15.32;;;1.60;84.60;;;0.22;80.21;95441.84;4018374;34;20071;-85
2021/12/26 05:04:54;;;;;;;24.90;16.10;;;1.60;84.50;;;0.21;80.73;95438.31;4039661;34;20278;-85
2021/12/26 05:07:21;;;;;;;26.27;16.05;;;1.60;84.70;;;0.21;80.34;95441.00;4021217;34;20339;-85
2021/12/26 05:09:48;;;;;;;23.02;15.70;;;1.60;84.70;;;0.23;80.35;95440.78;4020005;34;20039;-85
2021/12/26 05:12:14;;;;;;;25.50;15.65;;;1.60;84.50;;;0.22;80.64;95445.34;4021963;34;20255;-85
2021/12/26 05:14:40;;;;;;;23.02;14.57;;;1.60;84.50;;;0.22;80.86;95442.63;4042026;34;20244;-85
2021/12/26 05:17:07;;;;;;;23.98;15.13;;;1.60;84.70;;;0.23;80.39;95440.78;3998629;34;20293;-85
2021/12/26 05:19:34;;;;;;;23.58;14.70;;;1.60;84.60;;;0.21;80.42;95432.91;4043058;34;20382;-85
2021/12/26 05:22:00;;;;;;;21.95;14.35;;;1.60;84.50;;;0.21;80.40;95432.91;4041011;34;19995;-85
2021/12/26 05:24:26;;;;;;;20.98;14.30;;;1.60;84.70;;;0.23;80.63;95444.28;4017205;34;20005;-85
2021/12/26 05:26:52;;;;;;;21.80;13.95;;;1.60;84.70;;;0.23;80.50;95444.28;3974205;34;20915;-86
2021/12/26 05:29:19;;;;;;;25.52;14.73;;;1.60;84.60;;;0.22;80.56;95439.94;3974512;34;20132;-85
2021/12/26 05:31:45;;;;;;;22.38;14.18;;;1.60;84.50;;;0.22;80.38;95439.94;4039276;34;20043;-84
2021/12/26 05:34:12;;;;;;;21.65;14.40;;;1.60;84.60;;;0.23;80.29;95436.22;3975944;34;20636;-85
2021/12/26 05:36:38;;;;;;;24.70;14.55;;;1.60;84.50;;;0.24;80.45;95443.25;4016976;34;20305;-85
2021/12/26 05:39:04;;;;;;;23.08;13.70;;;1.60;84.50;;;0.23;80.41;95436.22;4016726;34;20339;-85
2021/12/26 05:41:33;;;;;;;25.08;15.13;;;1.60;85.50;;;0.23;80.36;95438.09;4007058;34;20281;-84
2021/12/26 05:44:10;;;;;;;24.50;14.70;;;1.60;84.60;;;0.23;80.67;95443.47;3979533;34;20292;-84
2021/12/26 05:46:37;;;;;;;23.67;14.57;;;1.60;84.70;;;0.25;80.36;95446.78;3973789;34;20128;-85
2021/12/26 05:49:04;;;;;;;20.77;13.60;;;1.60;84.60;;;0.24;80.50;95448.63;3972828;34;20005;-85
2021/12/26 05:51:40;;;;;;;22.80;13.88;;;1.60;84.80;;;0.25;80.92;95450.28;4035017;34;20294;-85
2021/12/26 05:54:06;;;;;;;22.75;14.13;;;1.60;84.90;;;0.24;80.47;95442.44;4041807;34;19988;-86
2021/12/26 05:56:32;;;;;;;24.15;14.63;;;1.70;84.80;;;0.25;80.70;95444.09;4042758;34;20302;-85
2021/12/26 05:58:59;;;;;;;20.95;14.38;;;1.70;84.90;;;0.26;80.58;95451.94;4057908;34;20289;-85
2021/12/26 06:01:26;;;;;;;19.98;13.27;;;1.60;84.80;;;0.26;80.54;95454.63;4043692;34;20259;-85
2021/12/26 06:03:52;;;;;;;20.52;13.50;;;1.70;84.80;;;0.26;80.70;95451.09;3989508;34;20212;-84
2021/12/26 06:06:18;;;;;;;22.02;14.43;;;1.70;84.70;;;0.25;80.25;95449.47;4016977;34;20138;-85
2021/12/26 06:08:46;;;;;;;21.63;13.13;;;1.70;84.60;;;0.25;80.79;95455.66;4014091;34;20292;-85
2021/12/26 06:11:14;;;;;;;21.33;13.88;;;1.70;84.80;;;0.26;80.53;95454.63;3989087;34;20000;-85
2021/12/26 06:13:40;;;;;;;26.67;15.05;;;1.60;84.70;;;0.26;80.30;95451.94;3961815;34;20036;-85
2021/12/26 06:16:07;;;;;;;21.77;14.38;;;1.70;84.60;;;0.27;80.61;95455.44;4003300;34;20286;-84
2021/12/26 06:18:33;;;;;;;26.60;15.43;;;1.70;84.70;;;0.26;80.27;95454.63;3982666;34;19997;-85
2021/12/26 06:21:18;;;;;;;24.95;14.30;;;1.70;84.70;;;0.27;80.51;95461.66;4034729;34;20296;-85
2021/12/26 06:23:50;;;;;;;23.42;15.07;;;1.60;84.60;;;0.27;80.78;95469.72;4054028;34;20004;-85
2021/12/26 06:26:31;;;;;;;23.85;15.77;;;1.60;84.80;;;0.26;80.73;95465.38;4034001;34;20000;-85
2021/12/26 06:29:00;;;;;;;25.08;15.50;;;1.70;84.70;;;0.27;80.55;95458.13;3964103;34;20686;-85
2021/12/26 06:31:35;;;;;;;24.60;16.27;;;1.70;84.80;;;0.28;80.73;95462.47;3969401;34;20005;-85
2021/12/26 06:34:20;;;;;;;25.05;15.18;;;1.60;84.70;;;0.29;80.57;95472.19;3974903;34;20519;-85
2021/12/26 06:37:04;;;;;;;26.50;16.15;;;1.70;84.70;;;0.28;80.25;95465.16;3987553;34;20326;-86
2021/12/26 06:39:50;;;;;;;25.05;16.38;;;1.70;84.60;;;0.28;80.75;95460.59;4075608;34;20320;-85
2021/12/26 06:42:44;;;;;;;26.25;16.48;;;1.70;84.90;;;0.28;80.67;95463.28;4040603;34;20916;-85
2021/12/26 06:45:43;;;;;;;24.98;16.15;;;1.70;84.80;;;0.29;80.37;95467.63;4042453;34;20701;-85
2021/12/26 06:48:18;;;;;;;25.73;16.35;;;1.70;84.70;;;0.28;80.36;95466.00;4035813;34;20015;-85
2021/12/26 06:50:46;;;;;;;27.08;16.00;;;1.70;84.70;;;0.27;80.53;95448.19;4033816;34;20281;-85
2021/12/26 06:53:13;;;;;;;26.35;16.42;;;1.70;84.80;;;0.28;80.54;95457.06;4055923;34;20307;-85
2021/12/26 06:55:39;;;;;;;27.77;16.38;;;1.70;84.70;;;0.29;80.71;95456.03;3990592;34;20588;-85
2021/12/26 06:58:06;;;;;;;26.98;17.30;;;1.70;84.70;;;0.28;80.48;95454.38;4040458;34;20303;-85
2021/12/26 07:00:32;;;;;;;24.95;16.35;;;1.70;84.70;;;0.27;80.53;95455.44;4015543;34;20012;-85
2021/12/26 07:02:59;;;;;;;26.45;17.42;;;1.70;84.80;;;0.28;80.57;95455.22;3991311;34;20290;-85
2021/12/26 07:05:25;;;;;;;28.88;18.83;;;1.60;85.00;;;0.29;80.74;95458.72;4013016;34;20550;-85
2021/12/26 07:08:00;;;;;;;28.15;17.42;;;1.70;85.20;;;0.30;80.71;95463.91;4044908;34;20293;-85
2021/12/26 07:10:26;;;;;;;26.33;16.65;;;1.70;84.90;;;0.30;80.28;95463.06;3972199;34;20027;-85
2021/12/26 07:12:53;;;;;;;27.80;17.48;;;1.70;84.90;;;0.29;80.47;95456.88;4040539;34;20028;-85
2021/12/26 07:15:37;;;;;;;26.50;17.40;;;1.70;84.70;;;0.29;80.43;95456.88;4035689;34;20329;-84
2021/12/26 07:18:05;;;;;;;29.67;18.55;;;1.70;84.80;;;0.30;80.52;95457.69;4038357;34;20321;-85
2021/12/26 07:20:35;;;;;;;27.73;18.08;;;1.70;84.70;;;0.31;80.17;95459.31;4016127;34;19988;-85
2021/12/26 07:23:07;;;;;;;25.02;15.77;;;1.70;84.70;;;0.30;80.77;95463.91;4048674;34;20305;-85
2021/12/26 07:25:33;;;;;;;25.50;16.90;;;1.70;84.70;;;0.30;80.93;95460.38;3994261;34;20395;-84
2021/12/26 07:28:01;;;;;;;27.98;16.70;;;1.70;84.90;;;0.32;80.83;95460.16;4015919;34;19987;-85
2021/12/26 07:30:36;;;;;;;26.20;17.02;;;1.70;85.00;;;0.32;80.96;95465.56;4041425;34;20004;-85
2021/12/26 07:33:03;;;;;;;26.10;17.23;;;1.70;85.00;;;0.33;80.22;95461.78;3994513;34;21024;-85
2021/12/26 07:35:29;;;;;;;29.08;18.85;;;1.70;84.80;;;0.31;80.34;95464.72;3993488;34;20008;-85
2021/12/26 07:38:18;;;;;;;27.50;18.30;;;1.70;84.70;;;0.33;80.50;95467.16;4027910;34;20020;-85
2021/12/26 07:40:46;;;;;;;27.02;16.83;;;1.70;84.80;;;0.33;80.68;95476.09;3974569;34;20657;-85
2021/12/26 07:43:22;;;;;;;27.75;18.15;;;1.70;84.70;;;0.33;80.40;95469.84;3985670;34;20366;-85
2021/12/26 07:46:06;;;;;;;26.77;17.83;;;1.70;84.80;;;0.33;80.23;95477.94;4044160;34;20322;-85
2021/12/26 07:48:33;;;;;;;32.03;18.25;;;1.70;84.80;;;0.33;80.65;95478.78;4037077;34;20303;-85
2021/12/26 07:51:01;;;;;;;28.13;17.33;;;1.70;84.90;;;0.35;80.32;95481.22;3994686;34;20324;-85
2021/12/26 07:53:49;;;;;;;27.63;17.15;;;1.70;84.90;;;0.36;80.65;95488.25;4040665;34;20032;-85
2021/12/26 07:56:33;;;;;;;29.00;18.95;;;1.70;84.80;;;0.37;80.78;95492.59;4040935;34;20305;-85
2021/12/26 07:59:18;;;;;;;28.13;17.20;;;1.80;84.80;;;0.36;80.50;95491.78;3986997;34;20009;-85
2021/12/26 08:02:05;;;;;;;27.45;17.45;;;1.70;84.80;;;0.37;80.58;95495.28;4007520;34;20305;-86
2021/12/26 08:04:50;;;;;;;28.35;17.98;;;1.80;84.70;;;0.37;80.43;95496.13;4050912;34;20071;-85
2021/12/26 08:07:34;;;;;;;30.45;18.27;;;1.70;84.70;;;0.37;80.59;95489.91;4032121;34;19996;-85
2021/12/26 08:10:03;;;;;;;28.05;17.60;;;1.80;84.80;;;0.37;80.51;95490.75;4023318;34;20807;-85
2021/12/26 08:12:29;;;;;;;29.15;19.17;;;1.70;84.70;;;0.37;80.69;95489.91;4001716;34;19984;-85
2021/12/26 08:14:56;;;;;;;30.75;18.05;;;1.80;84.80;;;0.38;80.11;95491.56;4066010;34;20322;-85
2021/12/26 08:17:23;;;;;;;28.63;18.40;;;1.80;84.70;;;0.39;80.44;95495.91;4088932;34;20280;-85
2021/12/26 08:19:50;;;;;;;26.90;17.98;;;1.80;84.70;;;0.39;80.38;95495.91;4002116;34;20573;-85
2021/12/26 08:22:16;;;;;;;28.63;18.75;;;1.80;84.70;;;0.39;80.90;95483.25;4065193;34;20211;-85
2021/12/26 08:24:42;;;;;;;28.15;18.02;;;1.80;84.80;;;0.40;80.78;95492.97;4020439;34;20024;-86
2021/12/26 08:27:12;;;;;;;32.25;19.83;;;1.80;84.80;;;0.40;80.53;95494.84;4021021;34;20545;-85
2021/12/26 08:29:38;;;;;;;28.33;19.50;;;1.80;84.80;;;0.41;80.72;95486.53;4020436;34;20047;-85
2021/12/26 08:32:06;;;;;;;27.50;17.77;;;1.80;84.80;;;0.42;80.42;95485.50;4021133;34;20276;-85
2021/12/26 08:34:32;;;;;;;31.98;19.77;;;1.80;84.70;;;0.41;80.49;95485.75;4041373;34;20012;-85
2021/12/26 08:37:03;;;;;;;28.98;18.67;;;1.80;84.70;;;0.42;80.46;95482.81;4020442;34;20591;-84
2021/12/26 08:39:36;;;;;;;31.08;19.85;;;1.80;84.80;;;0.42;80.58;95488.19;4024213;34;20019;-85
2021/12/26 08:42:04;;;;;;;28.40;19.55;;;1.80;84.80;;;0.42;80.80;95482.81;4044852;34;20019;-85
2021/12/26 08:44:30;;;;;;;31.83;20.25;;;1.80;84.80;;;0.42;80.56;95487.38;4066072;34;20338;-84
2021/12/26 08:46:56;;;;;;;30.48;19.95;;;1.80;84.70;;;0.43;80.57;95479.06;4089429;34;20012;-85
2021/12/26 08:49:23;;;;;;;31.40;20.40;;;1.80;84.80;;;0.43;80.46;95480.94;4001612;34;20315;-85
2021/12/26 08:51:49;;;;;;;30.65;19.55;;;1.80;84.80;;;0.45;80.47;95486.94;4046102;34;20036;-85
2021/12/26 08:54:16;;;;;;;29.00;20.00;;;1.80;84.60;;;0.43;80.53;95479.06;4046106;34;20291;-85
2021/12/26 08:56:43;;;;;;;31.90;20.60;;;1.80;84.60;;;0.43;80.56;95471.00;4002447;34;20004;-84
2021/12/26 08:59:09;;;;;;;29.65;19.02;;;1.80;84.70;;;0.44;80.54;95469.94;4043679;34;20319;-84
2021/12/26 09:01:36;;;;;;;28.52;19.77;;;1.80;84.60;;;0.45;80.47;95470.78;4088909;34;20310;-84
2021/12/26 09:04:03;;;;;;;31.25;20.10;;;1.90;84.80;;;0.45;80.29;95470.78;4022444;34;20382;-85
2021/12/26 09:06:30;;;;;;;30.65;20.20;;;1.80;84.70;;;0.46;80.33;95464.31;4063693;34;20323;-85
2021/12/26 09:08:56;;;;;;;29.77;19.88;;;1.90;84.80;;;0.45;80.59;95466.22;4013940;34;19997;-85
2021/12/26 09:11:22;;;;;;;28.90;19.58;;;1.90;84.70;;;0.46;80.28;95467.00;4034237;34;20047;-85
2021/12/26 09:13:49;;;;;;;31.50;19.58;;;1.90;84.70;;;0.46;80.66;95464.31;4008779;34;20589;-85
2021/12/26 09:16:15;;;;;;;28.85;19.45;;;1.90;84.80;;;0.47;80.68;95463.28;3987137;34;20251;-85
2021/12/26 09:18:42;;;;;;;27.95;18.65;;;1.90;84.80;;;0.49;80.85;95453.09;4031241;34;20308;-84
2021/12/26 09:21:08;;;;;;;32.97;20.70;;;1.90;84.80;;;0.45;80.36;95449.25;4009074;34;20287;-85
2021/12/26 09:23:34;;;;;;;29.23;20.05;;;1.90;84.80;;;0.49;80.16;95455.81;4030077;34;20307;-84
2021/12/26 09:26:01;;;;;;;31.65;20.95;;;1.90;84.70;;;0.49;80.49;95450.41;4005950;34;20373;-85
2021/12/26 09:28:28;;;;;;;27.45;18.33;;;1.90;84.80;;;0.49;80.29;95450.41;4005782;34;20616;-85
2021/12/26 09:30:55;;;;;;;28.63;19.02;;;1.90;84.80;;;0.49;80.63;95455.81;4049913;34;20009;-85
2021/12/26 09:33:21;;;;;;;31.52;19.98;;;1.90;84.80;;;0.50;80.15;95446.69;4027763;34;20298;-85
2021/12/26 09:35:51;;;;;;;29.10;19.73;;;1.90;84.70;;;0.52;80.77;95451.81;3962285;34;20302;-84
2021/12/26 09:38:18;;;;;;;29.17;19.65;;;1.90;84.80;;;0.52;80.47;95454.53;4006689;34;20300;-85
2021/12/26 09:40:44;;;;;;;29.77;19.98;;;1.90;84.90;;;0.52;80.58;95449.97;3963389;34;19985;-85
2021/12/26 09:43:10;;;;;;;31.58;21.20;;;1.90;84.80;;;0.51;80.24;95445.63;4071151;34;20035;-85
2021/12/26 09:45:37;;;;;;;30.05;19.88;;;1.90;84.80;;;0.54;80.45;95444.34;3983770;34;20303;-84
2021/12/26 09:48:03;;;;;;;31.38;19.67;;;1.90;84.90;;;0.54;80.61;95436.28;3984843;34;20012;-84
2021/12/26 09:50:30;;;;;;;28.55;20.27;;;1.90;84.90;;;0.54;80.62;95431.72;4028984;34;20280;-85
2021/12/26 09:52:56;;;;;;;29.63;19.77;;;1.90;84.80;;;0.56;80.49;95435.03;4007829;34;20005;-85
2021/12/26 09:55:26;;;;;;;29.40;19.58;;;1.90;84.70;;;0.56;80.29;95434.19;4029141;34;20031;-85
2021/12/26 09:57:52;;;;;;;31.15;19.48;;;2.00;84.70;;;0.58;80.81;95434.78;3987199;34;20084;-85
2021/12/26 10:00:33;;;;;;;31.30;20.30;;;2.00;84.70;;;0.59;80.46;95436.44;4008386;34;19997;-85
2021/12/26 10:03:17;;;;;;;29.83;19.23;;;2.00;84.70;;;0.58;80.18;95437.47;4031936;34;20319;-85
2021/12/26 10:06:13;;;;;;;29.33;19.83;;;1.90;84.70;;;0.60;80.17;95436.19;4035693;34;20035;-85
2021/12/26 10:09:01;;;;;;;30.60;19.60;;;2.00;84.60;;;0.60;80.61;95430.81;4011021;34;20008;-85
2021/12/26 10:11:46;;;;;;;28.30;17.83;;;2.00;84.70;;;0.60;80.30;95438.88;4050372;34;20008;-85
2021/12/26 10:14:33;;;;;;;28.50;18.13;;;2.00;84.70;;;0.61;80.69;95443.22;4040638;34;20306;-85
2021/12/26 10:17:09;;;;;;;27.08;18.50;;;2.00;84.80;;;0.61;80.65;95445.91;4041068;34;20015;-85
2021/12/26 10:19:46;;;;;;;;;;;2.00;84.70;;;0.61;80.63;95442.41;4019936;34;20325;-85
2021/12/26 10:22:25;;;;;;;24.75;17.45;;;2.00;85.10;;;0.60;80.52;95444.28;4016048;34;19943;-84
2021/12/26 10:24:52;;;;;;;27.88;17.00;;;2.00;84.70;;;0.62;80.57;95449.44;3988364;34;20340;-84
2021/12/26 10:27:29;;;;;;;24.42;16.80;;;2.00;84.80;;;0.60;80.51;95446.97;3987740;34;20726;-85
2021/12/26 10:29:58;;;;;;;27.17;17.27;;;2.00;84.80;;;0.60;80.47;95441.56;3992946;34;20323;-85
2021/12/26 10:32:33;;;;;;;24.92;16.80;;;2.00;84.80;;;0.60;80.51;95449.66;4014761;34;19989;-85
2021/12/26 10:35:04;;;;;;;25.95;16.90;;;2.00;84.70;;;0.61;80.33;95448.59;4037219;34;20290;-85
2021/12/26 10:37:50;;;;;;;24.48;15.82;;;2.00;84.80;;;0.60;80.83;95457.72;4035951;34;20336;-85
2021/12/26 10:40:25;;;;;;;25.05;16.92;;;2.00;85.00;;;0.61;80.79;95456.69;4037973;34;20334;-86